sensor_id;sensor_type;location;lat;lon;timestamp;pressure;altitude;pressure_sealevel;temperature;humidity
63568;BME280;49715;42.386;20.434;2023-02-12T00:01:14;98707.25;;;-2.26;47.49
63568;BME280;49715;42.386;20.434;2023-02-12T00:03:41;98707.34;;;-2.29;48.25
63568;BME280;49715;42.386;20.434;2023-02-12T00:06:08;98707.34;;;-2.29;48.02
63568;BME280;49715;42.386;20.434;2023-02-12T00:08:37;98708.28;;;-2.32;47.66
63568;BME280;49715;42.386;20.434;2023-02-12T00:11:12;98713.50;;;-2.34;48.24
63568;BME280;49715;42.386;20.434;2023-02-12T00:13:40;98702.50;;;-2.42;48.13
63568;BME280;49715;42.386;20.434;2023-02-12T00:16:09;98706.78;;;-2.41;48.03
63568;BME280;49715;42.386;20.434;2023-02-12T00:18:36;98713.56;;;-2.37;48.43
63568;BME280;49715;42.386;20.434;2023-02-12T00:21:03;98704.00;;;-2.33;48.07
63568;BME280;49715;42.386;20.434;2023-02-12T00:23:29;98703.13;;;-2.32;48.36
63568;BME280;49715;42.386;20.434;2023-02-12T00:25:56;98698.75;;;-2.30;48.07
63568;BME280;49715;42.386;20.434;2023-02-12T00:28:22;98702.09;;;-2.26;48.00
63568;BME280;49715;42.386;20.434;2023-02-12T00:30:49;98707.34;;;-2.29;48.32
63568;BME280;49715;42.386;20.434;2023-02-12T00:33:15;98715.13;;;-2.31;48.43
63568;BME280;49715;42.386;20.434;2023-02-12T00:35:42;98715.13;;;-2.31;48.10
63568;BME280;49715;42.386;20.434;2023-02-12T00:38:08;98718.66;;;-2.34;48.04
63568;BME280;49715;42.386;20.434;2023-02-12T00:40:35;98710.94;;;-2.35;48.07
63568;BME280;49715;42.386;20.434;2023-02-12T00:43:02;98703.28;;;-2.38;48.30
63568;BME280;49715;42.386;20.434;2023-02-12T00:45:28;98708.34;;;-2.35;48.28
63568;BME280;49715;42.386;20.434;2023-02-12T00:47:55;98707.47;;;-2.34;48.10
63568;BME280;49715;42.386;20.434;2023-02-12T00:50:21;98707.56;;;-2.37;48.06
63568;BME280;49715;42.386;20.434;2023-02-12T00:52:47;98709.47;;;-2.44;48.41
63568;BME280;49715;42.386;20.434;2023-02-12T00:55:14;98704.34;;;-2.47;48.27
63568;BME280;49715;42.386;20.434;2023-02-12T00:57:40;98699.25;;;-2.50;48.11
63568;BME280;49715;42.386;20.434;2023-02-12T01:00:07;98689.88;;;-2.54;48.19
63568;BME280;49715;42.386;20.434;2023-02-12T01:02:34;98679.63;;;-2.55;48.39
63568;BME280;49715;42.386;20.434;2023-02-12T01:05:01;98665.94;;;-2.59;48.37
63568;BME280;49715;42.386;20.434;2023-02-12T01:07:27;98692.47;;;-2.54;48.15
63568;BME280;49715;42.386;20.434;2023-02-12T01:09:55;98685.72;;;-2.58;48.17
63568;BME280;49715;42.386;20.434;2023-02-12T01:12:21;98677.16;;;-2.60;48.05
63568;BME280;49715;42.386;20.434;2023-02-12T01:14:48;98674.78;;;-2.69;48.61
63568;BME280;49715;42.386;20.434;2023-02-12T01:17:14;98670.59;;;-2.73;48.82
63568;BME280;49715;42.386;20.434;2023-02-12T01:19:43;98669.00;;;-2.79;48.81
63568;BME280;49715;42.386;20.434;2023-02-12T01:22:10;98670.91;;;-2.86;48.83
63568;BME280;49715;42.386;20.434;2023-02-12T01:24:36;98668.38;;;-2.87;49.09
63568;BME280;49715;42.386;20.434;2023-02-12T01:27:03;98678.59;;;-2.84;49.11
63568;BME280;49715;42.386;20.434;2023-02-12T01:29:29;98677.91;;;-2.91;49.42
63568;BME280;49715;42.386;20.434;2023-02-12T01:31:56;98673.66;;;-2.92;49.29
63568;BME280;49715;42.386;20.434;2023-02-12T01:34:22;98681.28;;;-2.89;49.47
63568;BME280;49715;42.386;20.434;2023-02-12T01:36:48;98674.66;;;-2.97;49.44
63568;BME280;49715;42.386;20.434;2023-02-12T01:39:15;98677.13;;;-2.94;49.29
63568;BME280;49715;42.386;20.434;2023-02-12T01:41:43;98676.50;;;-3.04;49.62
63568;BME280;49715;42.386;20.434;2023-02-12T01:44:17;98661.84;;;-3.02;49.80
63568;BME280;49715;42.386;20.434;2023-02-12T01:46:47;98653.22;;;-3.01;49.52
63568;BME280;49715;42.386;20.434;2023-02-12T01:49:23;98661.00;;;-3.02;49.63
63568;BME280;49715;42.386;20.434;2023-02-12T01:52:23;98659.34;;;-3.05;50.64
63568;BME280;49715;42.386;20.434;2023-02-12T01:54:53;98659.34;;;-3.05;49.42
63568;BME280;49715;42.386;20.434;2023-02-12T01:57:21;98654.22;;;-3.06;49.84
63568;BME280;49715;42.386;20.434;2023-02-12T01:59:52;98653.50;;;-3.12;50.09
63568;BME280;49715;42.386;20.434;2023-02-12T02:02:19;98652.59;;;-3.11;49.86
63568;BME280;49715;42.386;20.434;2023-02-12T02:04:54;98632.03;;;-3.14;50.02
63568;BME280;49715;42.386;20.434;2023-02-12T02:07:22;98640.53;;;-3.10;49.94
63568;BME280;49715;42.386;20.434;2023-02-12T02:09:49;98646.59;;;-3.13;49.70
63568;BME280;49715;42.386;20.434;2023-02-12T02:12:16;98631.34;;;-3.20;50.32
63568;BME280;49715;42.386;20.434;2023-02-12T02:15:03;98617.75;;;-3.27;52.01
63568;BME280;49715;42.386;20.434;2023-02-12T02:30:59;98616.03;;;-3.28;51.02
63568;BME280;49715;42.386;20.434;2023-02-12T02:38:51;98609.28;;;-3.33;51.02
63568;BME280;49715;42.386;20.434;2023-02-12T02:43:58;98600.56;;;-3.26;50.82
63568;BME280;49715;42.386;20.434;2023-02-12T02:46:52;98619.91;;;-3.10;50.91
63568;BME280;49715;42.386;20.434;2023-02-12T02:49:26;98620.53;;;-3.00;50.78
63568;BME280;49715;42.386;20.434;2023-02-12T02:52:02;98623.19;;;-3.03;51.08
63568;BME280;49715;42.386;20.434;2023-02-12T02:54:33;98630.69;;;-2.94;51.02
63568;BME280;49715;42.386;20.434;2023-02-12T02:57:23;98622.16;;;-2.96;51.54
63568;BME280;49715;42.386;20.434;2023-02-12T02:59:56;98617.63;;;-2.87;51.25
63568;BME280;49715;42.386;20.434;2023-02-12T03:02:31;98626.88;;;-2.79;51.19
63568;BME280;49715;42.386;20.434;2023-02-12T03:05:02;98614.81;;;-2.79;51.49
63568;BME280;49715;42.386;20.434;2023-02-12T03:10:06;98626.13;;;-2.50;51.08
63568;BME280;49715;42.386;20.434;2023-02-12T03:12:43;98633.56;;;-2.38;51.20
63568;BME280;49715;42.386;20.434;2023-02-12T03:15:16;98633.31;;;-2.29;51.03
63568;BME280;49715;42.386;20.434;2023-02-12T03:17:46;98617.53;;;-2.18;50.65
63568;BME280;49715;42.386;20.434;2023-02-12T03:20:24;98610.50;;;-2.13;51.06
63568;BME280;49715;42.386;20.434;2023-02-12T03:22:56;98619.00;;;-2.10;50.66
63568;BME280;49715;42.386;20.434;2023-02-12T03:25:37;98605.28;;;-2.12;50.07
63568;BME280;49715;42.386;20.434;2023-02-12T03:28:10;98606.97;;;-2.11;50.30
63568;BME280;49715;42.386;20.434;2023-02-12T03:33:21;98590.28;;;-2.30;50.45
63568;BME280;49715;42.386;20.434;2023-02-12T03:35:58;98596.41;;;-2.33;50.54
63568;BME280;49715;42.386;20.434;2023-02-12T03:38:44;98599.06;;;-2.36;51.37
63568;BME280;49715;42.386;20.434;2023-02-12T03:41:29;98594.72;;;-2.35;50.79
63568;BME280;49715;42.386;20.434;2023-02-12T03:50:01;98600.41;;;-2.22;50.65
63568;BME280;49715;42.386;20.434;2023-02-12T03:52:29;98586.72;;;-2.26;50.87
63568;BME280;49715;42.386;20.434;2023-02-12T03:54:56;98579.63;;;-2.18;51.00
63568;BME280;49715;42.386;20.434;2023-02-12T03:57:26;98575.31;;;-2.17;50.61
63568;BME280;49715;42.386;20.434;2023-02-12T03:59:57;98584.53;;;-2.09;50.75
63568;BME280;49715;42.386;20.434;2023-02-12T04:02:26;98586.97;;;-2.04;50.58
63568;BME280;49715;42.386;20.434;2023-02-12T04:04:53;98568.91;;;-2.05;50.95
63568;BME280;49715;42.386;20.434;2023-02-12T04:07:20;98566.19;;;-1.99;50.81
63568;BME280;49715;42.386;20.434;2023-02-12T04:09:46;98564.16;;;-1.90;51.33
63568;BME280;49715;42.386;20.434;2023-02-12T04:15:45;98573.16;;;-1.73;50.91
63568;BME280;49715;42.386;20.434;2023-02-12T04:18:10;98576.50;;;-1.70;50.79
63568;BME280;49715;42.386;20.434;2023-02-12T04:20:48;98566.75;;;-1.62;50.92
63568;BME280;49715;42.386;20.434;2023-02-12T04:23:46;98567.50;;;-1.58;50.67
63568;BME280;49715;42.386;20.434;2023-02-12T04:26:20;98565.72;;;-1.56;50.65
63568;BME280;49715;42.386;20.434;2023-02-12T04:34:48;98544.44;;;-1.38;50.80
63568;BME280;49715;42.386;20.434;2023-02-12T04:37:19;98539.03;;;-1.30;50.23
63568;BME280;49715;42.386;20.434;2023-02-12T04:39:48;98532.06;;;-1.28;50.60
63568;BME280;49715;42.386;20.434;2023-02-12T04:42:14;98539.63;;;-1.22;50.37
63568;BME280;49715;42.386;20.434;2023-02-12T04:44:43;98551.53;;;-1.18;50.16
63568;BME280;49715;42.386;20.434;2023-02-12T04:47:14;98554.13;;;-1.18;50.42
63568;BME280;49715;42.386;20.434;2023-02-12T04:49:42;98557.63;;;-1.19;50.60
63568;BME280;49715;42.386;20.434;2023-02-12T04:52:08;98539.72;;;-1.25;50.53
63568;BME280;49715;42.386;20.434;2023-02-12T04:54:35;98553.56;;;-1.26;50.81
63568;BME280;49715;42.386;20.434;2023-02-12T04:57:01;98551.97;;;-1.30;50.85
63568;BME280;49715;42.386;20.434;2023-02-12T04:59:28;98566.53;;;-1.27;51.03
63568;BME280;49715;42.386;20.434;2023-02-12T05:01:54;98555.31;;;-1.28;51.16
63568;BME280;49715;42.386;20.434;2023-02-12T05:04:21;98547.34;;;-1.20;51.19
63568;BME280;49715;42.386;20.434;2023-02-12T05:06:47;98538.75;;;-1.22;51.32
63568;BME280;49715;42.386;20.434;2023-02-12T05:09:17;98547.03;;;-1.11;50.67
63568;BME280;49715;42.386;20.434;2023-02-12T05:11:44;98547.88;;;-1.11;50.89
63568;BME280;49715;42.386;20.434;2023-02-12T05:14:11;98549.47;;;-1.07;50.90
63568;BME280;49715;42.386;20.434;2023-02-12T05:16:37;98555.47;;;-1.06;50.72
63568;BME280;49715;42.386;20.434;2023-02-12T05:19:03;98549.50;;;-1.08;50.68
63568;BME280;49715;42.386;20.434;2023-02-12T05:21:30;98555.34;;;-1.01;50.86
63568;BME280;49715;42.386;20.434;2023-02-12T05:23:56;98558.69;;;-0.99;51.08
63568;BME280;49715;42.386;20.434;2023-02-12T05:26:23;98556.81;;;-0.94;50.76
63568;BME280;49715;42.386;20.434;2023-02-12T05:28:49;98545.75;;;-0.99;50.84
63568;BME280;49715;42.386;20.434;2023-02-12T05:31:17;98556.03;;;-0.96;50.84
63568;BME280;49715;42.386;20.434;2023-02-12T05:33:45;98557.50;;;-0.89;51.02
63568;BME280;49715;42.386;20.434;2023-02-12T05:36:21;98557.47;;;-0.88;50.62
63568;BME280;49715;42.386;20.434;2023-02-12T05:38:48;98568.44;;;-0.81;50.58
63568;BME280;49715;42.386;20.434;2023-02-12T05:41:19;98578.88;;;-0.84;51.68
63568;BME280;49715;42.386;20.434;2023-02-12T05:43:45;98573.78;;;-0.86;50.88
63568;BME280;49715;42.386;20.434;2023-02-12T05:46:13;98594.47;;;-0.86;50.93
63568;BME280;49715;42.386;20.434;2023-02-12T05:48:39;98590.94;;;-0.83;50.23
63568;BME280;49715;42.386;20.434;2023-02-12T05:51:17;98598.75;;;-0.85;50.66
63568;BME280;49715;42.386;20.434;2023-02-12T05:53:45;98607.22;;;-0.80;50.92
63568;BME280;49715;42.386;20.434;2023-02-12T05:58:47;98621.13;;;-0.82;50.69
63568;BME280;49715;42.386;20.434;2023-02-12T06:01:21;98634.91;;;-0.82;50.60
63568;BME280;49715;42.386;20.434;2023-02-12T06:03:48;98628.03;;;-0.83;50.75
63568;BME280;49715;42.386;20.434;2023-02-12T06:06:15;98640.00;;;-0.80;50.96
63568;BME280;49715;42.386;20.434;2023-02-12T06:08:41;98643.34;;;-0.76;51.18
63568;BME280;49715;42.386;20.434;2023-02-12T06:11:12;98620.06;;;-0.76;51.09
63568;BME280;49715;42.386;20.434;2023-02-12T06:13:39;98632.88;;;-0.73;51.23
63568;BME280;49715;42.386;20.434;2023-02-12T06:16:06;98658.53;;;-0.66;50.88
63568;BME280;49715;42.386;20.434;2023-02-12T06:18:36;98641.41;;;-0.70;50.80
63568;BME280;49715;42.386;20.434;2023-02-12T06:21:03;98643.06;;;-0.67;50.67
63568;BME280;49715;42.386;20.434;2023-02-12T06:23:29;98652.28;;;-0.60;51.04
63568;BME280;49715;42.386;20.434;2023-02-12T06:25:56;98654.19;;;-0.65;50.59
63568;BME280;49715;42.386;20.434;2023-02-12T06:28:22;98646.50;;;-0.67;50.93
63568;BME280;49715;42.386;20.434;2023-02-12T06:30:49;98655.69;;;-0.58;50.55
63568;BME280;49715;42.386;20.434;2023-02-12T06:33:15;98667.59;;;-0.53;50.67
63568;BME280;49715;42.386;20.434;2023-02-12T06:35:42;98666.75;;;-0.53;50.47
63568;BME280;49715;42.386;20.434;2023-02-12T06:38:08;98656.56;;;-0.59;50.72
63568;BME280;49715;42.386;20.434;2023-02-12T06:40:34;98661.56;;;-0.53;50.58
63568;BME280;49715;42.386;20.434;2023-02-12T06:43:01;98644.47;;;-0.59;50.62
63568;BME280;49715;42.386;20.434;2023-02-12T06:45:27;98652.22;;;-0.59;50.58
63568;BME280;49715;42.386;20.434;2023-02-12T06:47:54;98645.22;;;-0.55;50.56
63568;BME280;49715;42.386;20.434;2023-02-12T06:50:20;98668.31;;;-0.49;50.51
63568;BME280;49715;42.386;20.434;2023-02-12T06:52:47;98656.38;;;-0.53;50.54
63568;BME280;49715;42.386;20.434;2023-02-12T06:55:13;98655.34;;;-0.49;50.25
63568;BME280;49715;42.386;20.434;2023-02-12T06:57:39;98660.72;;;-0.54;50.33
63568;BME280;49715;42.386;20.434;2023-02-12T07:00:08;98660.81;;;-0.57;50.36
63568;BME280;49715;42.386;20.434;2023-02-12T07:02:35;98671.81;;;-0.50;50.29
63568;BME280;49715;42.386;20.434;2023-02-12T07:05:01;98678.66;;;-0.49;50.72
63568;BME280;49715;42.386;20.434;2023-02-12T07:07:28;98675.38;;;-0.54;50.76
63568;BME280;49715;42.386;20.434;2023-02-12T07:09:54;98689.91;;;-0.48;50.80
63568;BME280;49715;42.386;20.434;2023-02-12T07:12:21;98698.53;;;-0.48;50.45
63568;BME280;49715;42.386;20.434;2023-02-12T07:14:47;98695.72;;;-0.42;50.91
63568;BME280;49715;42.386;20.434;2023-02-12T07:17:14;98677.59;;;-0.42;50.61
63568;BME280;49715;42.386;20.434;2023-02-12T07:19:40;98708.84;;;-0.21;50.86
63568;BME280;49715;42.386;20.434;2023-02-12T07:22:07;98694.88;;;-0.17;50.87
63568;BME280;49715;42.386;20.434;2023-02-12T07:24:33;98697.22;;;-0.10;50.37
63568;BME280;49715;42.386;20.434;2023-02-12T07:27:00;98709.81;;;-0.01;50.40
63568;BME280;49715;42.386;20.434;2023-02-12T07:29:26;98710.56;;;0.03;50.43
63568;BME280;49715;42.386;20.434;2023-02-12T07:31:52;98723.84;;;-0.06;50.62
63568;BME280;49715;42.386;20.434;2023-02-12T07:34:19;98740.31;;;-0.07;50.39
63568;BME280;49715;42.386;20.434;2023-02-12T07:36:45;98738.69;;;-0.10;50.69
63568;BME280;49715;42.386;20.434;2023-02-12T07:39:12;98745.34;;;-0.03;50.82
63568;BME280;49715;42.386;20.434;2023-02-12T07:41:38;98731.09;;;0.09;50.80
63568;BME280;49715;42.386;20.434;2023-02-12T07:44:07;98736.69;;;0.22;50.76
63568;BME280;49715;42.386;20.434;2023-02-12T07:46:38;98738.44;;;0.21;50.79
63568;BME280;49715;42.386;20.434;2023-02-12T07:49:06;98747.81;;;0.25;50.97
63568;BME280;49715;42.386;20.434;2023-02-12T07:51:34;98748.72;;;0.24;50.72
63568;BME280;49715;42.386;20.434;2023-02-12T07:54:01;98747.59;;;0.32;50.67
63568;BME280;49715;42.386;20.434;2023-02-12T07:56:29;98750.78;;;0.40;51.29
63568;BME280;49715;42.386;20.434;2023-02-12T07:59:02;98734.63;;;0.55;50.39
63568;BME280;49715;42.386;20.434;2023-02-12T08:01:40;98741.13;;;0.67;50.29
63568;BME280;49715;42.386;20.434;2023-02-12T08:04:12;98716.81;;;0.69;50.04
63568;BME280;49715;42.386;20.434;2023-02-12T08:06:41;98701.66;;;0.81;50.18
63568;BME280;49715;42.386;20.434;2023-02-12T08:09:10;98697.81;;;0.91;50.05
63568;BME280;49715;42.386;20.434;2023-02-12T08:11:38;98681.69;;;1.05;49.82
63568;BME280;49715;42.386;20.434;2023-02-12T08:14:05;98689.41;;;1.28;49.83
63568;BME280;49715;42.386;20.434;2023-02-12T08:16:35;98680.19;;;1.41;49.55
63568;BME280;49715;42.386;20.434;2023-02-12T08:19:03;98705.69;;;1.53;49.44
63568;BME280;49715;42.386;20.434;2023-02-12T08:21:29;98682.88;;;1.60;49.34
63568;BME280;49715;42.386;20.434;2023-02-12T08:23:57;98669.78;;;1.63;49.28
63568;BME280;49715;42.386;20.434;2023-02-12T08:26:29;98682.66;;;1.66;49.07
63568;BME280;49715;42.386;20.434;2023-02-12T08:29:05;98680.06;;;1.66;49.18
63568;BME280;49715;42.386;20.434;2023-02-12T08:31:37;98685.94;;;1.70;49.28
63568;BME280;49715;42.386;20.434;2023-02-12T08:34:04;98686.94;;;1.67;49.07
63568;BME280;49715;42.386;20.434;2023-02-12T08:36:37;98664.31;;;1.69;48.95
63568;BME280;49715;42.386;20.434;2023-02-12T08:39:05;98667.28;;;1.80;48.88
63568;BME280;49715;42.386;20.434;2023-02-12T08:41:33;98680.03;;;1.87;48.99
63568;BME280;49715;42.386;20.434;2023-02-12T08:44:01;98672.25;;;1.87;48.72
63568;BME280;49715;42.386;20.434;2023-02-12T08:46:30;98652.47;;;1.83;48.33
63568;BME280;49715;42.386;20.434;2023-02-12T08:49:03;98673.44;;;1.98;48.21
63568;BME280;49715;42.386;20.434;2023-02-12T08:51:32;98649.94;;;2.01;48.29
63568;BME280;49715;42.386;20.434;2023-02-12T08:54:01;98647.69;;;2.13;48.21
63568;BME280;49715;42.386;20.434;2023-02-12T08:56:29;98655.16;;;2.20;48.22
63568;BME280;49715;42.386;20.434;2023-02-12T08:58:57;98638.56;;;2.23;48.22
63568;BME280;49715;42.386;20.434;2023-02-12T09:01:26;98630.06;;;2.38;48.19
63568;BME280;49715;42.386;20.434;2023-02-12T09:03:53;98627.03;;;2.47;47.95
63568;BME280;49715;42.386;20.434;2023-02-12T09:06:21;98639.84;;;2.52;47.64
63568;BME280;49715;42.386;20.434;2023-02-12T09:08:50;98649.81;;;2.61;47.63
63568;BME280;49715;42.386;20.434;2023-02-12T09:11:19;98659.38;;;2.61;47.55
63568;BME280;49715;42.386;20.434;2023-02-12T09:13:49;98648.91;;;2.62;48.04
63568;BME280;49715;42.386;20.434;2023-02-12T09:16:16;98644.91;;;2.74;47.73
63568;BME280;49715;42.386;20.434;2023-02-12T09:18:42;98630.66;;;2.81;47.70
63568;BME280;49715;42.386;20.434;2023-02-12T09:21:12;98642.50;;;3.05;47.50
63568;BME280;49715;42.386;20.434;2023-02-12T09:23:42;98627.34;;;3.14;47.28
63568;BME280;49715;42.386;20.434;2023-02-12T09:26:11;98639.72;;;3.27;46.92
63568;BME280;49715;42.386;20.434;2023-02-12T09:28:38;98622.22;;;3.29;46.90
63568;BME280;49715;42.386;20.434;2023-02-12T09:31:09;98635.56;;;3.41;46.70
63568;BME280;49715;42.386;20.434;2023-02-12T09:33:37;98641.16;;;3.50;46.59
63568;BME280;49715;42.386;20.434;2023-02-12T09:36:06;98629.88;;;3.67;46.49
63568;BME280;49715;42.386;20.434;2023-02-12T09:38:32;98613.19;;;3.71;46.01
63568;BME280;49715;42.386;20.434;2023-02-12T09:41:43;98625.09;;;3.75;45.52
63568;BME280;49715;42.386;20.434;2023-02-12T09:46:57;98611.31;;;3.73;45.75
63568;BME280;49715;42.386;20.434;2023-02-12T09:52:05;98629.94;;;4.16;45.61
63568;BME280;49715;42.386;20.434;2023-02-12T09:54:38;98618.34;;;4.22;45.72
63568;BME280;49715;42.386;20.434;2023-02-12T09:57:13;98620.53;;;4.29;45.31
63568;BME280;49715;42.386;20.434;2023-02-12T09:59:50;98633.66;;;4.44;45.27
63568;BME280;49715;42.386;20.434;2023-02-12T10:02:19;98627.38;;;4.48;45.32
63568;BME280;49715;42.386;20.434;2023-02-12T10:04:48;98625.53;;;4.65;45.28
63568;BME280;49715;42.386;20.434;2023-02-12T10:13:03;98639.19;;;5.32;44.94
63568;BME280;49715;42.386;20.434;2023-02-12T10:21:40;98631.78;;;5.99;44.30
63568;BME280;49715;42.386;20.434;2023-02-12T10:27:16;98627.09;;;6.33;44.26
63568;BME280;49715;42.386;20.434;2023-02-12T10:29:46;98635.78;;;6.48;44.13
63568;BME280;49715;42.386;20.434;2023-02-12T10:32:34;98638.78;;;6.56;43.37
63568;BME280;49715;42.386;20.434;2023-02-12T10:35:13;98632.75;;;6.68;43.84
63568;BME280;49715;42.386;20.434;2023-02-12T10:37:44;98637.09;;;6.69;43.18
63568;BME280;49715;42.386;20.434;2023-02-12T10:42:45;98636.72;;;6.88;43.59
63568;BME280;49715;42.386;20.434;2023-02-12T10:45:20;98653.66;;;6.96;43.58
63568;BME280;49715;42.386;20.434;2023-02-12T10:47:50;98642.59;;;7.06;43.42
63568;BME280;49715;42.386;20.434;2023-02-12T10:51:03;98647.81;;;7.06;42.47
63568;BME280;49715;42.386;20.434;2023-02-12T10:53:40;98646.09;;;7.19;43.37
63568;BME280;49715;42.386;20.434;2023-02-12T11:03:47;98643.28;;;7.74;43.33
63568;BME280;49715;42.386;20.434;2023-02-12T11:06:23;98635.13;;;7.92;43.10
63568;BME280;49715;42.386;20.434;2023-02-12T11:08:51;98639.22;;;8.21;42.92
63568;BME280;49715;42.386;20.434;2023-02-12T11:11:26;98639.72;;;8.26;42.51
63568;BME280;49715;42.386;20.434;2023-02-12T11:13:57;98647.06;;;8.34;42.64
63568;BME280;49715;42.386;20.434;2023-02-12T11:16:54;98633.09;;;8.34;41.62
63568;BME280;49715;42.386;20.434;2023-02-12T11:19:24;98629.84;;;8.43;42.61
63568;BME280;49715;42.386;20.434;2023-02-12T11:22:05;98637.53;;;8.46;42.08
63568;BME280;49715;42.386;20.434;2023-02-12T11:24:34;98628.69;;;8.47;42.45
63568;BME280;49715;42.386;20.434;2023-02-12T11:27:22;98634.72;;;8.36;41.81
63568;BME280;49715;42.386;20.434;2023-02-12T11:30:11;98631.44;;;8.20;41.79
63568;BME280;49715;42.386;20.434;2023-02-12T11:32:38;98635.63;;;8.22;42.53
63568;BME280;49715;42.386;20.434;2023-02-12T11:37:33;98641.19;;;8.31;42.39
63568;BME280;49715;42.386;20.434;2023-02-12T11:40:03;98635.00;;;8.32;42.36
63568;BME280;49715;42.386;20.434;2023-02-12T11:42:34;98639.41;;;8.31;42.31
63568;BME280;49715;42.386;20.434;2023-02-12T11:45:02;98630.06;;;8.27;42.21
63568;BME280;49715;42.386;20.434;2023-02-12T11:47:33;98636.03;;;8.29;41.85
63568;BME280;49715;42.386;20.434;2023-02-12T11:50:23;98637.84;;;8.16;41.29
63568;BME280;49715;42.386;20.434;2023-02-12T11:52:52;98626.19;;;8.07;41.62
63568;BME280;49715;42.386;20.434;2023-02-12T11:55:32;98620.94;;;8.20;41.72
63568;BME280;49715;42.386;20.434;2023-02-12T11:58:12;98632.06;;;8.23;41.58
63568;BME280;49715;42.386;20.434;2023-02-12T12:06:21;98625.25;;;9.07;41.29
63568;BME280;49715;42.386;20.434;2023-02-12T12:08:59;98625.34;;;9.29;40.98
63568;BME280;49715;42.386;20.434;2023-02-12T12:11:36;98604.63;;;9.49;40.68
63568;BME280;49715;42.386;20.434;2023-02-12T12:14:32;98596.53;;;9.86;40.00
63568;BME280;49715;42.386;20.434;2023-02-12T12:17:25;98587.75;;;10.31;40.63
63568;BME280;49715;42.386;20.434;2023-02-12T12:20:20;98592.16;;;10.65;40.34
63568;BME280;49715;42.386;20.434;2023-02-12T12:25:31;98616.34;;;10.81;39.95
63568;BME280;49715;42.386;20.434;2023-02-12T12:28:33;98624.16;;;10.71;39.24
63568;BME280;49715;42.386;20.434;2023-02-12T12:31:13;98631.47;;;10.56;38.99
63568;BME280;49715;42.386;20.434;2023-02-12T12:33:46;98625.00;;;10.61;40.00
63568;BME280;49715;42.386;20.434;2023-02-12T12:36:39;98616.06;;;10.95;39.17
63568;BME280;49715;42.386;20.434;2023-02-12T12:59:13;98631.81;;;11.82;38.77
63568;BME280;49715;42.386;20.434;2023-02-12T13:07:52;98647.78;;;11.27;39.04
63568;BME280;49715;42.386;20.434;2023-02-12T13:10:50;98653.94;;;11.05;38.37
63568;BME280;49715;42.386;20.434;2023-02-12T13:13:37;98650.81;;;11.00;38.91
63568;BME280;49715;42.386;20.434;2023-02-12T13:27:36;98690.31;;;9.99;40.55
63568;BME280;49715;42.386;20.434;2023-02-12T13:30:22;98687.63;;;9.77;40.59
63568;BME280;49715;42.386;20.434;2023-02-12T13:33:11;98679.97;;;9.50;40.84
63568;BME280;49715;42.386;20.434;2023-02-12T13:35:44;98697.06;;;9.44;41.23
63568;BME280;49715;42.386;20.434;2023-02-12T13:41:20;98703.31;;;9.07;41.46
63568;BME280;49715;42.386;20.434;2023-02-12T13:47:05;98717.88;;;8.87;42.03
63568;BME280;49715;42.386;20.434;2023-02-12T13:57:18;98725.38;;;8.42;42.69
63568;BME280;49715;42.386;20.434;2023-02-12T14:05:00;98726.19;;;8.17;43.01
63568;BME280;49715;42.386;20.434;2023-02-12T14:07:53;98732.69;;;8.11;43.46
63568;BME280;49715;42.386;20.434;2023-02-12T14:10:27;98731.34;;;8.06;43.25
63568;BME280;49715;42.386;20.434;2023-02-12T14:12:58;98729.94;;;8.00;43.13
63568;BME280;49715;42.386;20.434;2023-02-12T14:15:36;98737.63;;;8.03;43.32
63568;BME280;49715;42.386;20.434;2023-02-12T14:18:11;98746.44;;;8.02;43.35
63568;BME280;49715;42.386;20.434;2023-02-12T14:20:46;98741.31;;;8.00;43.33
63568;BME280;49715;42.386;20.434;2023-02-12T14:23:32;98730.03;;;7.98;43.97
63568;BME280;49715;42.386;20.434;2023-02-12T14:26:13;98737.09;;;7.98;44.02
63568;BME280;49715;42.386;20.434;2023-02-12T14:28:54;98734.34;;;7.99;43.75
63568;BME280;49715;42.386;20.434;2023-02-12T14:31:33;98734.34;;;7.99;43.70
63568;BME280;49715;42.386;20.434;2023-02-12T14:39:26;98748.44;;;7.98;44.00
63568;BME280;49715;42.386;20.434;2023-02-12T14:47:03;98758.38;;;7.93;43.78
63568;BME280;49715;42.386;20.434;2023-02-12T14:49:35;98755.22;;;7.88;43.88
63568;BME280;49715;42.386;20.434;2023-02-12T14:54:50;98762.44;;;7.72;44.14
63568;BME280;49715;42.386;20.434;2023-02-12T14:57:36;98767.22;;;7.65;44.47
63568;BME280;49715;42.386;20.434;2023-02-12T15:00:29;98765.00;;;7.59;44.38
63568;BME280;49715;42.386;20.434;2023-02-12T15:03:01;98759.66;;;7.61;44.18
63568;BME280;49715;42.386;20.434;2023-02-12T15:05:46;98769.06;;;7.51;44.25
63568;BME280;49715;42.386;20.434;2023-02-12T15:16:33;98773.97;;;7.42;45.14
63568;BME280;49715;42.386;20.434;2023-02-12T15:21:41;98778.97;;;7.33;44.67
63568;BME280;49715;42.386;20.434;2023-02-12T15:24:13;98789.47;;;7.33;44.67
63568;BME280;49715;42.386;20.434;2023-02-12T15:26:49;98796.66;;;7.29;44.97
63568;BME280;49715;42.386;20.434;2023-02-12T15:29:45;98800.13;;;7.30;44.69
63568;BME280;49715;42.386;20.434;2023-02-12T15:32:18;98802.94;;;7.27;44.82
63568;BME280;49715;42.386;20.434;2023-02-12T15:34:48;98808.72;;;7.32;44.79
63568;BME280;49715;42.386;20.434;2023-02-12T15:37:27;98806.31;;;7.29;44.98
63568;BME280;49715;42.386;20.434;2023-02-12T15:39:57;98811.47;;;7.16;44.91
63568;BME280;49715;42.386;20.434;2023-02-12T15:42:31;98817.47;;;7.18;45.02
63568;BME280;49715;42.386;20.434;2023-02-12T15:45:07;98809.53;;;7.05;45.30
63568;BME280;49715;42.386;20.434;2023-02-12T15:47:44;98816.00;;;7.00;45.37
63568;BME280;49715;42.386;20.434;2023-02-12T15:50:12;98817.28;;;6.92;45.29
63568;BME280;49715;42.386;20.434;2023-02-12T15:52:43;98837.06;;;6.98;45.54
63568;BME280;49715;42.386;20.434;2023-02-12T15:55:17;98826.03;;;6.93;45.54
63568;BME280;49715;42.386;20.434;2023-02-12T15:57:51;98840.81;;;6.94;45.73
63568;BME280;49715;42.386;20.434;2023-02-12T16:00:29;98830.78;;;6.86;45.92
63568;BME280;49715;42.386;20.434;2023-02-12T16:02:57;98840.78;;;6.80;45.83
63568;BME280;49715;42.386;20.434;2023-02-12T16:05:24;98840.13;;;6.76;46.03